Time;durP1;ratioP1;P1;durP2;ratioP2;P2;SDS_P1;SDS_P2;PMS_P1;PMS_P2;Temp;Humidity;BMP_temperature;BMP_pressure;BME280_temperature;BME280_humidity;BME280_pressure;Samples;Min_cycle;Max_cycle;Signal;HPM_P1;HPM_P2
2022/08/03 00:01:01;;;;;;;9.45;4.55;;;20.30;99.90;;;;;;3060314;19;20019;-70
2022/08/03 00:02:02;;;;;;;6.70;4.60;;;20.30;99.90;;;;;;3059160;19;20017;-70
2022/08/03 00:03:06;;;;;;;10.57;4.55;;;20.20;99.90;;;;;;3059302;19;20042;-70
2022/08/03 00:04:09;;;;;;;11.60;5.10;;;20.20;99.90;;;;;;3059534;19;20364;-70
2022/08/03 00:05:13;;;;;;;7.85;4.45;;;20.20;99.90;;;;;;3059745;19;20014;-69
2022/08/03 00:06:14;;;;;;;9.25;4.55;;;20.20;99.90;;;;;;3059823;19;20655;-70
2022/08/03 00:07:18;;;;;;;9.48;4.15;;;20.30;99.90;;;;;;3059760;19;20491;-70
2022/08/03 00:08:20;;;;;;;11.15;4.80;;;20.30;99.90;;;;;;3058887;19;20010;-70
2022/08/03 00:09:24;;;;;;;;;;;20.10;99.90;;;;;;3059583;19;20002;-70
2022/08/03 00:10:25;;;;;;;10.75;4.95;;;20.20;99.90;;;;;;3058945;19;20280;-70
2022/08/03 00:11:32;;;;;;;9.32;4.93;;;20.10;99.90;;;;;;3059428;19;20014;-69
2022/08/03 00:12:35;;;;;;;9.23;4.40;;;20.00;99.90;;;;;;3058963;19;20495;-70
2022/08/03 00:13:39;;;;;;;10.07;4.65;;;20.10;99.90;;;;;;3059337;19;20364;-70
2022/08/03 00:14:40;;;;;;;8.85;4.75;;;20.20;99.90;;;;;;3059053;19;20038;-70
2022/08/03 00:15:45;;;;;;;10.45;4.28;;;20.20;99.90;;;;;;3058267;19;20089;-69
2022/08/03 00:16:46;;;;;;;8.13;4.25;;;20.00;99.90;;;;;;3058723;19;20017;-70
2022/08/03 00:17:50;;;;;;;11.80;4.45;;;20.00;99.90;;;;;;3060305;19;20018;-70
2022/08/03 00:18:51;;;;;;;8.75;4.05;;;20.20;99.90;;;;;;3059856;19;20052;-72
2022/08/03 00:19:55;;;;;;;7.60;4.25;;;20.10;99.90;;;;;;3059249;19;20022;-69
2022/08/03 00:20:56;;;;;;;6.88;3.88;;;20.00;99.90;;;;;;3058905;19;20038;-70
2022/08/03 00:22:00;;;;;;;7.22;3.85;;;20.00;99.90;;;;;;3059149;19;20018;-69
2022/08/03 00:23:03;;;;;;;6.47;3.88;;;19.90;99.90;;;;;;3058236;19;20014;-70
2022/08/03 00:24:07;;;;;;;10.43;4.20;;;20.00;99.90;;;;;;3058234;19;20386;-70
2022/08/03 00:25:09;;;;;;;8.38;4.18;;;20.00;99.90;;;;;;3058957;19;20015;-70
2022/08/03 00:26:13;;;;;;;9.30;4.50;;;20.10;99.90;;;;;;3058056;19;20590;-70
2022/08/03 00:27:16;;;;;;;10.73;4.47;;;20.10;99.90;;;;;;3057899;19;20018;-70
2022/08/03 00:28:20;;;;;;;12.18;4.60;;;20.20;99.90;;;;;;3060459;19;20014;-70
2022/08/03 00:29:21;;;;;;;9.30;4.07;;;20.20;99.90;;;;;;3057720;19;20091;-70
2022/08/03 00:30:25;;;;;;;9.13;4.18;;;20.00;99.90;;;;;;3059977;19;20029;-70
2022/08/03 00:31:27;;;;;;;9.50;4.30;;;20.10;99.90;;;;;;3059215;19;20019;-70
2022/08/03 00:32:31;;;;;;;8.13;4.38;;;20.00;99.90;;;;;;3059479;19;20014;-70
2022/08/03 00:33:32;;;;;;;7.85;4.20;;;20.00;99.90;;;;;;3058825;19;20511;-70
2022/08/03 00:34:36;;;;;;;10.35;4.95;;;20.00;99.90;;;;;;3059858;19;20025;-70
2022/08/03 00:35:37;;;;;;;7.28;4.38;;;19.90;99.90;;;;;;3058552;19;20494;-70
2022/08/03 00:36:41;;;;;;;11.73;4.65;;;20.10;99.90;;;;;;3060047;19;20010;-70
2022/08/03 00:37:43;;;;;;;10.88;4.88;;;20.10;99.90;;;;;;3058484;19;20383;-70
2022/08/03 00:38:47;;;;;;;12.32;4.88;;;19.90;99.90;;;;;;3060875;19;20014;-70
2022/08/03 00:39:48;;;;;;;10.85;4.25;;;20.00;99.90;;;;;;3059826;19;20026;-70
2022/08/03 00:40:52;;;;;;;9.15;4.45;;;19.90;99.90;;;;;;3059892;19;20015;-70
2022/08/03 00:41:53;;;;;;;10.38;4.22;;;20.00;99.90;;;;;;3058654;19;20494;-70
2022/08/03 00:43:02;;;;;;;7.30;4.18;;;19.90;99.90;;;;;;3059423;19;20017;-70
2022/08/03 00:44:04;;;;;;;7.13;3.80;;;19.90;99.90;;;;;;3058858;19;20011;-70
2022/08/03 00:45:09;;;;;;;9.52;3.75;;;19.90;99.90;;;;;;3059668;19;20046;-70
2022/08/03 00:46:13;;;;;;;11.65;4.45;;;19.70;99.90;;;;;;3058436;19;20497;-70
2022/08/03 00:47:14;;;;;;;9.18;4.32;;;19.70;99.90;;;;;;3057814;19;20079;-71
2022/08/03 00:48:18;;;;;;;7.95;4.47;;;19.80;99.90;;;;;;3059032;19;20014;-70
2022/08/03 00:49:19;;;;;;;8.18;4.20;;;19.80;99.90;;;;;;3058788;19;20010;-70
2022/08/03 00:50:24;;;;;;;9.90;4.25;;;19.80;99.90;;;;;;3058900;19;20018;-70
2022/08/03 00:51:26;;;;;;;12.25;4.10;;;19.80;99.90;;;;;;3058414;19;20010;-71
2022/08/03 00:52:29;;;;;;;9.63;3.78;;;19.80;99.90;;;;;;3058302;19;20010;-70
2022/08/03 00:53:34;;;;;;;8.65;3.83;;;19.80;99.90;;;;;;3058644;19;20511;-71
2022/08/03 00:54:36;;;;;;;10.82;4.25;;;19.70;99.90;;;;;;3057969;19;20014;-71
2022/08/03 00:55:41;;;;;;;8.00;3.85;;;19.70;99.90;;;;;;3057824;19;20022;-70
2022/08/03 00:56:43;;;;;;;9.05;3.70;;;19.70;99.90;;;;;;3058635;19;20018;-70
2022/08/03 00:57:47;;;;;;;7.50;3.72;;;19.60;99.90;;;;;;3058947;19;20426;-70
2022/08/03 00:58:54;;;;;;;9.05;4.00;;;19.70;99.90;;;;;;3058440;19;20033;-70
2022/08/03 00:59:58;;;;;;;11.25;4.30;;;19.60;99.90;;;;;;3058285;19;20494;-70
2022/08/03 01:01:00;;;;;;;5.95;3.83;;;19.70;99.90;;;;;;3059928;19;20078;-70
2022/08/03 01:02:03;;;;;;;7.78;3.85;;;19.70;99.90;;;;;;3059423;19;20015;-70
2022/08/03 01:03:05;;;;;;;10.95;3.80;;;19.50;99.90;;;;;;3059023;19;20026;-70
2022/08/03 01:04:09;;;;;;;7.80;3.80;;;19.80;99.90;;;;;;3058664;19;20002;-70
2022/08/03 01:05:15;;;;;;;8.77;4.30;;;19.70;99.90;;;;;;3058286;19;20360;-70
2022/08/03 01:06:20;;;;;;;9.10;3.88;;;19.60;99.90;;;;;;3058401;19;20002;-70
2022/08/03 01:07:29;;;;;;;8.77;3.90;;;19.60;99.90;;;;;;3059660;19;20014;-70
2022/08/03 01:08:44;;;;;;;8.65;3.58;;;19.40;99.90;;;;;;3058411;19;20014;-70
2022/08/03 01:09:53;;;;;;;7.85;3.83;;;19.70;99.90;;;;;;3059011;19;20014;-70
2022/08/03 01:11:07;;;;;;;9.60;3.63;;;19.70;99.90;;;;;;3058043;19;20023;-70
2022/08/03 01:12:22;;;;;;;9.40;3.60;;;19.70;99.90;;;;;;3059296;19;20015;-70
2022/08/03 01:13:29;;;;;;;7.15;3.80;;;19.60;99.90;;;;;;3057770;19;20015;-70
2022/08/03 01:14:42;;;;;;;8.48;3.33;;;19.60;99.90;;;;;;3058172;19;20535;-71
2022/08/03 01:15:53;;;;;;;8.48;4.13;;;19.50;99.90;;;;;;3059153;19;20015;-70
2022/08/03 01:17:01;;;;;;;7.72;3.70;;;19.40;99.90;;;;;;3058269;19;20043;-70
2022/08/03 01:18:07;;;;;;;7.80;3.35;;;19.40;99.90;;;;;;3059126;19;20026;-70
2022/08/03 01:19:33;;;;;;;8.68;3.70;;;19.50;99.90;;;;;;3057978;19;20085;-70
2022/08/03 01:20:38;;;;;;;5.97;3.58;;;19.60;99.90;;;;;;3055473;19;20014;-70
2022/08/03 01:21:54;;;;;;;6.60;3.40;;;19.60;99.90;;;;;;3057358;19;20094;-70
2022/08/03 01:23:36;;;;;;;6.93;3.30;;;19.40;99.90;;;;;;3058198;19;20010;-70
2022/08/03 01:24:49;;;;;;;7.80;3.63;;;17.70;99.90;;;;;;3059103;19;20490;-70
2022/08/03 01:26:07;;;;;;;7.95;3.40;;;19.50;99.90;;;;;;3057897;19;20496;-70
2022/08/03 01:27:16;;;;;;;7.90;3.10;;;19.30;99.90;;;;;;3058409;19;20042;-70
2022/08/03 01:28:32;;;;;;;8.00;3.40;;;19.40;99.90;;;;;;3057998;19;20010;-70
2022/08/03 01:30:11;;;;;;;7.90;3.50;;;19.40;99.90;;;;;;3057670;19;20014;-70
2022/08/03 01:31:20;;;;;;;7.72;3.90;;;19.40;99.90;;;;;;3058307;19;20014;-70
2022/08/03 01:32:33;;;;;;;8.82;3.80;;;19.50;99.90;;;;;;3059564;19;20028;-70
2022/08/03 01:33:40;;;;;;;7.70;2.97;;;19.40;99.90;;;;;;3059211;19;20019;-70
2022/08/03 01:34:46;;;;;;;8.93;3.25;;;19.40;99.90;;;;;;3058809;19;20026;-70
2022/08/03 01:35:55;;;;;;;7.80;2.88;;;19.30;99.90;;;;;;3058211;19;20030;-70
2022/08/03 01:37:01;;;;;;;7.72;3.10;;;19.50;99.90;;;;;;3057852;19;20031;-70
2022/08/03 01:38:08;;;;;;;9.52;3.10;;;19.30;99.90;;;;;;3058394;19;20033;-70
2022/08/03 01:39:11;;;;;;;5.75;2.80;;;19.30;99.90;;;;;;3058043;19;20013;-70
2022/08/03 01:40:17;;;;;;;5.93;2.75;;;19.40;99.90;;;;;;3059053;19;20019;-70
2022/08/03 01:41:21;;;;;;;7.10;2.80;;;19.50;99.90;;;;;;3058055;19;20487;-70
2022/08/03 01:42:27;;;;;;;6.72;3.13;;;19.30;99.90;;;;;;3057688;19;20028;-70
2022/08/03 01:43:29;;;;;;;5.88;2.70;;;19.40;99.90;;;;;;3057920;19;19999;-70
2022/08/03 01:44:38;;;;;;;7.95;3.10;;;19.40;99.90;;;;;;3058823;19;20029;-70
2022/08/03 01:45:42;;;;;;;10.35;3.35;;;19.30;99.90;;;;;;3058059;19;20031;-70
2022/08/03 01:46:50;;;;;;;6.80;3.10;;;19.50;99.90;;;;;;3059688;19;20091;-70
2022/08/03 01:47:53;;;;;;;6.95;2.97;;;19.20;99.90;;;;;;3058560;19;20117;-70
2022/08/03 01:48:57;;;;;;;9.30;2.92;;;19.40;99.90;;;;;;3057667;19;20499;-70
2022/08/03 01:50:01;;;;;;;6.95;2.90;;;19.40;99.90;;;;;;3058054;19;20014;-70
2022/08/03 01:51:05;;;;;;;6.93;2.97;;;19.30;99.90;;;;;;3057082;19;20018;-70
2022/08/03 01:52:07;;;;;;;10.50;3.10;;;19.30;99.90;;;;;;3058091;19;20031;-70
2022/08/03 01:53:12;;;;;;;6.60;2.72;;;19.30;99.90;;;;;;3057748;19;20480;-70
2022/08/03 01:54:14;;;;;;;4.70;2.78;;;19.30;99.90;;;;;;3058092;19;20476;-70
2022/08/03 01:55:21;;;;;;;11.05;2.80;;;19.20;99.90;;;;;;3058186;19;20019;-70
2022/08/03 01:56:24;;;;;;;9.00;3.25;;;19.30;99.90;;;;;;3058868;19;20011;-70
2022/08/03 01:57:32;;;;;;;8.43;3.17;;;19.50;99.90;;;;;;3058605;19;20361;-70
2022/08/03 01:58:35;;;;;;;8.02;3.08;;;19.30;99.90;;;;;;3060523;19;20011;-70
2022/08/03 01:59:41;;;;;;;8.40;2.97;;;19.30;99.90;;;;;;3058661;19;20006;-70
2022/08/03 02:00:43;;;;;;;10.45;3.10;;;19.20;99.90;;;;;;3059238;19;20488;-71
2022/08/03 02:01:52;;;;;;;9.20;2.70;;;19.20;99.90;;;;;;3058602;19;20023;-70
2022/08/03 02:02:55;;;;;;;6.97;2.60;;;19.10;99.90;;;;;;3059539;19;20083;-70
2022/08/03 02:04:01;;;;;;;12.95;3.42;;;19.60;99.90;;;;;;3059691;19;20015;-70
2022/08/03 02:05:05;;;;;;;8.02;3.38;;;19.20;99.90;;;;;;3057080;19;20018;-70
2022/08/03 02:06:11;;;;;;;6.72;2.88;;;19.20;99.90;;;;;;3058071;19;20109;-70
2022/08/03 02:07:14;;;;;;;6.40;2.63;;;19.20;99.90;;;;;;3057542;19;20028;-70
2022/08/03 02:08:20;;;;;;;5.82;2.83;;;19.10;99.90;;;;;;3058923;19;20023;-70
2022/08/03 02:09:24;;;;;;;5.97;3.33;;;19.20;99.90;;;;;;3058589;19;20026;-70
2022/08/03 02:10:29;;;;;;;9.68;3.00;;;18.70;99.90;;;;;;3059266;19;20006;-70
2022/08/03 02:11:33;;;;;;;5.57;2.55;;;19.20;99.90;;;;;;3059579;19;20003;-70
2022/08/03 02:12:38;;;;;;;9.25;3.13;;;19.10;99.90;;;;;;3060200;19;20087;-70
2022/08/03 02:13:41;;;;;;;7.15;2.92;;;19.20;99.90;;;;;;3057450;19;20022;-70
2022/08/03 02:14:47;;;;;;;8.55;3.00;;;19.30;99.90;;;;;;3058385;19;20019;-70
2022/08/03 02:15:51;;;;;;;8.60;2.78;;;19.20;99.90;;;;;;3057905;19;20015;-70
2022/08/03 02:16:56;;;;;;;5.85;2.60;;;19.10;99.90;;;;;;3059059;19;20015;-70
2022/08/03 02:18:01;;;;;;;5.50;2.85;;;19.30;99.90;;;;;;3057187;19;20506;-70
2022/08/03 02:19:06;;;;;;;6.88;3.10;;;19.40;99.90;;;;;;3057972;19;20010;-70
2022/08/03 02:20:13;;;;;;;9.52;3.10;;;19.40;99.90;;;;;;3057677;19;20006;-70
2022/08/03 02:21:15;;;;;;;8.75;3.28;;;19.10;99.90;;;;;;3057705;19;20491;-70
2022/08/03 02:22:19;;;;;;;10.15;3.28;;;19.20;99.90;;;;;;3057328;19;20010;-70
2022/08/03 02:23:21;;;;;;;6.28;2.55;;;19.20;99.90;;;;;;3057611;19;20014;-70
2022/08/03 02:24:24;;;;;;;8.30;2.92;;;19.20;99.90;;;;;;3057617;19;20540;-70
2022/08/03 02:25:27;;;;;;;6.00;2.60;;;19.20;99.90;;;;;;3058193;19;20018;-70
2022/08/03 02:26:32;;;;;;;6.97;2.97;;;19.10;99.90;;;;;;3057726;19;20018;-70
2022/08/03 02:27:37;;;;;;;10.68;2.90;;;19.20;99.90;;;;;;3058403;19;20429;-70
2022/08/03 02:28:48;;;;;;;8.85;2.90;;;19.20;99.90;;;;;;3058502;19;20022;-70
2022/08/03 02:29:54;;;;;;;8.52;2.88;;;19.10;99.90;;;;;;3060225;19;20038;-71
2022/08/03 02:30:59;;;;;;;8.25;2.50;;;19.10;99.90;;;;;;3060714;19;20014;-70
2022/08/03 02:32:04;;;;;;;10.60;2.95;;;19.10;99.90;;;;;;3061390;19;20365;-71
2022/08/03 02:33:15;;;;;;;11.73;3.10;;;19.10;99.90;;;;;;3063109;19;20018;-71
2022/08/03 02:34:20;;;;;;;9.60;2.80;;;19.30;99.90;;;;;;3060120;19;20011;-71
2022/08/03 02:35:26;;;;;;;7.93;2.38;;;19.10;99.90;;;;;;3060811;19;20078;-71
2022/08/03 02:36:33;;;;;;;10.65;2.70;;;19.20;99.90;;;;;;3060278;19;20434;-70
2022/08/03 02:37:42;;;;;;;6.10;3.17;;;19.30;99.90;;;;;;3062130;19;20019;-70
2022/08/03 02:38:50;;;;;;;4.93;2.58;;;19.10;99.90;;;;;;3060306;19;20028;-70
2022/08/03 02:40:02;;;;;;;7.78;2.95;;;19.00;99.90;;;;;;3060732;19;20014;-70
2022/08/03 02:41:06;;;;;;;7.28;2.75;;;19.00;99.90;;;;;;3061422;19;20479;-70
2022/08/03 02:42:13;;;;;;;8.35;2.83;;;18.90;99.90;;;;;;3060690;19;20360;-70
2022/08/03 02:43:17;;;;;;;7.60;3.13;;;19.10;99.90;;;;;;3061567;19;20010;-70
2022/08/03 02:44:26;;;;;;;6.65;2.67;;;19.00;99.90;;;;;;3059962;19;20014;-71
2022/08/03 02:45:31;;;;;;;7.25;2.83;;;18.90;99.90;;;;;;3060650;19;20011;-71
2022/08/03 02:46:39;;;;;;;13.00;3.20;;;19.10;99.90;;;;;;3060268;19;20006;-70
2022/08/03 02:47:45;;;;;;;8.38;2.72;;;18.80;99.90;;;;;;3060278;19;20003;-70
2022/08/03 02:48:50;;;;;;;6.90;2.63;;;19.00;99.90;;;;;;3061027;19;20016;-70
2022/08/03 02:49:53;;;;;;;6.25;2.85;;;19.00;99.90;;;;;;3060357;19;20342;-70
2022/08/03 02:51:00;;;;;;;5.57;2.75;;;18.90;99.90;;;;;;3060639;19;20030;-70
2022/08/03 02:52:03;;;;;;;7.35;2.90;;;18.90;99.90;;;;;;3060239;19;20005;-70
2022/08/03 02:53:09;;;;;;;5.88;2.72;;;18.90;99.90;;;;;;3060903;19;20018;-70
2022/08/03 02:54:14;;;;;;;8.00;2.70;;;18.90;99.90;;;;;;3061318;19;20042;-70
2022/08/03 02:55:19;;;;;;;11.65;3.05;;;18.90;99.90;;;;;;3059863;19;20030;-70
2022/08/03 02:56:23;;;;;;;10.75;3.33;;;18.70;99.90;;;;;;3060315;19;20026;-71
2022/08/03 02:57:29;;;;;;;8.02;2.97;;;19.00;99.90;;;;;;3061108;19;20021;-70
2022/08/03 02:58:31;;;;;;;8.20;3.08;;;18.90;99.90;;;;;;3060325;19;19998;-70
2022/08/03 02:59:36;;;;;;;9.50;3.30;;;19.00;99.90;;;;;;3060240;19;20042;-71
2022/08/03 03:00:38;;;;;;;8.82;3.20;;;18.90;99.90;;;;;;3061244;19;20018;-70
2022/08/03 03:01:42;;;;;;;9.95;3.30;;;18.80;99.90;;;;;;3060219;19;20010;-71
2022/08/03 03:02:47;;;;;;;7.25;3.20;;;18.80;99.90;;;;;;3061362;19;20010;-70
2022/08/03 03:03:52;;;;;;;6.75;3.40;;;18.90;99.90;;;;;;3060164;19;20006;-70
2022/08/03 03:04:55;;;;;;;9.23;3.80;;;18.90;99.90;;;;;;3060248;19;20003;-70
2022/08/03 03:05:59;;;;;;;9.88;3.35;;;18.70;99.90;;;;;;3061156;19;20410;-70
2022/08/03 03:07:01;;;;;;;11.77;4.03;;;18.70;99.90;;;;;;3059820;19;20480;-70
2022/08/03 03:08:06;;;;;;;9.82;3.80;;;18.70;99.90;;;;;;3059874;19;20019;-70
2022/08/03 03:09:08;;;;;;;9.40;3.78;;;18.60;99.90;;;;;;3059683;19;20018;-70
2022/08/03 03:10:12;;;;;;;6.72;3.45;;;18.60;99.90;;;;;;3059357;19;20020;-70
2022/08/03 03:11:19;;;;;;;7.55;3.20;;;18.70;99.90;;;;;;3059715;19;20550;-70
2022/08/03 03:12:21;;;;;;;8.82;3.85;;;18.70;99.90;;;;;;3060880;19;20015;-70
2022/08/03 03:13:26;;;;;;;7.93;3.90;;;18.70;99.90;;;;;;3059998;19;20365;-70
2022/08/03 03:14:28;;;;;;;7.47;3.92;;;18.80;99.90;;;;;;3060643;19;20038;-70
2022/08/03 03:15:34;;;;;;;8.93;4.32;;;18.60;99.90;;;;;;3060013;19;20019;-70
2022/08/03 03:16:36;;;;;;;7.88;3.83;;;18.70;99.90;;;;;;3059864;19;20011;-70
2022/08/03 03:17:40;;;;;;;;;;;18.70;99.90;;;;;;3061223;19;20054;-70
2022/08/03 03:18:47;;;;;;;7.18;3.60;;;18.70;99.90;;;;;;3059793;19;19921;-70
2022/08/03 03:19:52;;;;;;;9.45;4.15;;;18.40;99.90;;;;;;3061197;19;20066;-70
2022/08/03 03:20:55;;;;;;;10.13;3.80;;;18.40;99.90;;;;;;3060085;19;20006;-70
2022/08/03 03:22:01;;;;;;;8.73;3.72;;;18.60;99.90;;;;;;3059620;19;20110;-70
2022/08/03 03:23:04;;;;;;;12.07;4.20;;;18.50;99.90;;;;;;3059744;19;20018;-70
2022/08/03 03:24:09;;;;;;;8.93;3.90;;;18.70;99.90;;;;;;3059741;19;20011;-70
2022/08/03 03:25:10;;;;;;;8.65;4.28;;;18.40;99.90;;;;;;3059150;19;20080;-70
2022/08/03 03:26:16;;;;;;;11.30;4.60;;;18.50;99.90;;;;;;3059800;19;20011;-70
2022/08/03 03:27:17;;;;;;;5.88;3.60;;;18.50;99.90;;;;;;3059904;19;20011;-70
2022/08/03 03:28:21;;;;;;;;;;;18.70;99.90;;;;;;3061735;19;20365;-70
2022/08/03 03:29:23;;;;;;;11.82;4.07;;;18.60;99.90;;;;;;3059671;19;19943;-70
2022/08/03 03:30:27;;;;;;;;;;;18.60;99.90;;;;;;3060665;19;20027;-70
2022/08/03 03:31:28;;;;;;;8.30;3.95;;;18.50;99.90;;;;;;3059687;19;19926;-70
2022/08/03 03:32:33;;;;;;;9.15;4.15;;;18.40;99.90;;;;;;3060915;19;20019;-70
2022/08/03 03:33:36;;;;;;;9.25;3.90;;;18.60;99.90;;;;;;3059659;19;20002;-70
2022/08/03 03:34:44;;;;;;;8.13;4.03;;;18.60;99.90;;;;;;3059388;19;20527;-70
2022/08/03 03:35:45;;;;;;;13.00;4.55;;;18.40;99.90;;;;;;3061567;19;20018;-70
2022/08/03 03:36:49;;;;;;;9.65;3.83;;;18.50;99.90;;;;;;3059041;19;20038;-70
2022/08/03 03:37:51;;;;;;;7.57;3.97;;;18.40;99.90;;;;;;3059926;19;20014;-70
2022/08/03 03:38:55;;;;;;;;;;;18.60;99.90;;;;;;3060362;19;20408;-70
2022/08/03 03:39:56;;;;;;;9.48;4.53;;;18.70;99.90;;;;;;3061564;19;20245;-70
2022/08/03 03:41:01;;;;;;;10.23;4.38;;;18.40;99.90;;;;;;3059171;19;20074;-70
2022/08/03 03:42:02;;;;;;;11.52;4.35;;;18.40;99.90;;;;;;3059858;19;20002;-70
2022/08/03 03:43:09;;;;;;;;;;;18.40;99.90;;;;;;3059293;19;20043;-70
2022/08/03 03:44:11;;;;;;;9.45;4.20;;;18.30;99.90;;;;;;3058891;19;19927;-70
2022/08/03 03:45:14;;;;;;;;;;;18.40;99.90;;;;;;3060459;19;20018;-70
2022/08/03 03:46:17;;;;;;;9.07;4.20;;;18.50;99.90;;;;;;3059545;19;19939;-70
2022/08/03 03:47:21;;;;;;;;;;;18.40;99.90;;;;;;3059944;19;20014;-71
2022/08/03 03:48:23;;;;;;;10.73;4.40;;;18.30;99.90;;;;;;3060684;19;20261;-71
2022/08/03 03:49:28;;;;;;;12.35;4.22;;;18.40;99.90;;;;;;3059587;19;20015;-70
2022/08/03 03:50:33;;;;;;;10.70;3.65;;;18.30;99.90;;;;;;3060205;19;20029;-70
2022/08/03 03:51:37;;;;;;;8.82;3.78;;;18.30;99.90;;;;;;3058908;19;20014;-70
2022/08/03 03:52:39;;;;;;;9.38;4.45;;;18.40;99.90;;;;;;3060108;19;20011;-70
2022/08/03 03:53:43;;;;;;;9.80;3.72;;;18.30;99.90;;;;;;3059148;19;20386;-70
2022/08/03 03:54:45;;;;;;;11.20;3.95;;;18.30;99.90;;;;;;3059296;19;20026;-70
2022/08/03 03:55:49;;;;;;;10.82;4.20;;;18.30;99.90;;;;;;3059198;19;20021;-70
2022/08/03 03:56:50;;;;;;;9.77;4.20;;;18.30;99.90;;;;;;3060182;19;20500;-70
2022/08/03 03:57:54;;;;;;;10.38;4.47;;;18.40;99.90;;;;;;3059164;19;20018;-70
2022/08/03 03:58:56;;;;;;;10.82;4.07;;;18.40;99.90;;;;;;3060497;19;20022;-70
2022/08/03 04:00:00;;;;;;;9.93;4.13;;;18.20;99.90;;;;;;3058838;19;20029;-71
2022/08/03 04:01:01;;;;;;;10.85;3.60;;;18.20;99.90;;;;;;3061208;19;20035;-70
2022/08/03 04:02:05;;;;;;;11.60;3.90;;;18.40;99.90;;;;;;3059387;19;20011;-70
2022/08/03 04:03:06;;;;;;;9.10;3.90;;;18.30;99.90;;;;;;3061302;19;20026;-70
2022/08/03 04:12:03;;;;;;;10.63;3.72;;;18.20;99.90;;;;;;3058944;19;20017;-70
2022/08/03 04:13:08;;;;;;;13.32;4.10;;;18.30;99.90;;;;;;3059714;19;20045;-70
2022/08/03 04:14:16;;;;;;;10.70;3.72;;;18.20;99.90;;;;;;3058938;19;20027;-70
2022/08/03 04:15:20;;;;;;;8.70;4.53;;;18.40;99.90;;;;;;3059143;19;20528;-70
2022/08/03 04:16:29;;;;;;;9.23;3.63;;;18.40;99.90;;;;;;3060830;19;20479;-70
2022/08/03 04:17:31;;;;;;;9.68;3.15;;;18.30;99.90;;;;;;3059465;19;20371;-70
2022/08/03 04:18:36;;;;;;;12.55;4.20;;;18.30;99.90;;;;;;3060286;19;20381;-70
2022/08/03 04:19:42;;;;;;;9.52;4.35;;;18.40;99.90;;;;;;3061080;19;20023;-70
2022/08/03 04:20:49;;;;;;;10.73;3.75;;;18.30;99.90;;;;;;3058164;19;20452;-70
2022/08/03 04:22:00;;;;;;;11.10;3.47;;;18.10;99.90;;;;;;3058911;19;19995;-70
2022/08/03 04:23:03;;;;;;;11.07;3.75;;;18.10;99.90;;;;;;3060205;19;20025;-70
2022/08/03 04:24:10;;;;;;;11.52;4.00;;;18.20;99.90;;;;;;3059164;19;20487;-70
2022/08/03 04:25:18;;;;;;;10.98;4.35;;;18.30;99.90;;;;;;3058567;19;20345;-70
2022/08/03 04:26:25;;;;;;;9.65;3.88;;;18.20;99.90;;;;;;3058578;19;20003;-70
2022/08/03 04:27:32;;;;;;;7.82;3.63;;;18.10;99.90;;;;;;3058013;19;20018;-70
2022/08/03 04:28:37;;;;;;;9.30;3.58;;;18.20;99.90;;;;;;3058304;19;20018;-70
2022/08/03 04:29:41;;;;;;;10.40;4.10;;;18.40;99.90;;;;;;3058363;19;20014;-70
2022/08/03 04:30:49;;;;;;;10.70;4.57;;;18.20;99.90;;;;;;3059930;19;20077;-70
2022/08/03 04:31:53;;;;;;;8.38;4.32;;;18.30;99.90;;;;;;3058846;19;20480;-70
2022/08/03 04:32:58;;;;;;;9.52;3.53;;;18.20;99.90;;;;;;3060783;19;20039;-70
2022/08/03 04:34:04;;;;;;;11.85;4.03;;;18.10;99.90;;;;;;3058941;19;20015;-71
2022/08/03 04:35:07;;;;;;;8.57;3.60;;;18.30;99.90;;;;;;3057698;19;20084;-70
2022/08/03 04:36:21;;;;;;;9.20;3.97;;;18.30;99.90;;;;;;3060339;19;20021;-70
2022/08/03 04:37:36;;;;;;;8.57;3.60;;;18.10;99.90;;;;;;3058874;19;20014;-70
2022/08/03 04:38:41;;;;;;;8.68;3.92;;;18.20;99.90;;;;;;3059117;19;20011;-70
2022/08/03 04:39:48;;;;;;;12.10;4.18;;;18.20;99.90;;;;;;3058533;19;20358;-70
2022/08/03 04:40:51;;;;;;;8.77;3.80;;;18.20;99.90;;;;;;3059699;19;20501;-70
2022/08/03 04:41:58;;;;;;;11.13;4.25;;;18.20;99.90;;;;;;3059477;19;20011;-70
2022/08/03 04:43:01;;;;;;;7.85;3.78;;;18.30;99.90;;;;;;3059048;19;20003;-72
2022/08/03 04:44:08;;;;;;;8.65;4.00;;;18.30;99.90;;;;;;3059485;19;20487;-71
2022/08/03 04:45:12;;;;;;;9.45;3.80;;;18.20;99.90;;;;;;3060428;19;20096;-70
2022/08/03 04:46:17;;;;;;;9.85;3.88;;;18.40;99.90;;;;;;3058278;19;20012;-72
2022/08/03 04:47:19;;;;;;;9.82;3.80;;;18.20;99.90;;;;;;3058966;19;20010;-71
2022/08/03 04:48:24;;;;;;;8.18;3.70;;;18.10;99.90;;;;;;3060915;19;20028;-71
2022/08/03 04:49:26;;;;;;;8.88;4.20;;;18.20;99.90;;;;;;3060120;19;20015;-71
2022/08/03 04:50:30;;;;;;;11.98;4.38;;;18.10;99.90;;;;;;3059174;19;20030;-71
2022/08/03 04:51:37;;;;;;;8.07;4.07;;;18.30;99.90;;;;;;3058258;19;20368;-71
2022/08/03 04:52:41;;;;;;;8.63;4.10;;;18.30;99.90;;;;;;3057542;19;20018;-71
2022/08/03 04:53:45;;;;;;;9.35;4.00;;;18.20;99.90;;;;;;3059762;19;20022;-71
2022/08/03 04:54:48;;;;;;;9.20;3.97;;;18.30;99.90;;;;;;3059118;19;20490;-71
2022/08/03 04:55:52;;;;;;;9.27;4.22;;;18.20;99.90;;;;;;3056439;19;20047;-71
2022/08/03 04:56:53;;;;;;;10.75;4.55;;;18.30;99.90;;;;;;3059087;19;20021;-71
2022/08/03 04:57:57;;;;;;;9.85;4.40;;;18.40;99.90;;;;;;3058366;19;20551;-71
2022/08/03 04:58:58;;;;;;;12.05;4.18;;;18.30;99.90;;;;;;3059503;19;20019;-71
2022/08/03 05:00:02;;;;;;;8.77;4.20;;;18.40;99.90;;;;;;3059224;19;20011;-71
2022/08/03 05:01:04;;;;;;;6.65;4.13;;;18.30;99.90;;;;;;3060066;19;20042;-71
2022/08/03 05:02:08;;;;;;;;;;;18.40;99.90;;;;;;3058962;19;20026;-71
2022/08/03 05:03:10;;;;;;;11.05;4.07;;;18.40;99.90;;;;;;3058461;19;20359;-71
2022/08/03 05:04:14;;;;;;;9.15;3.85;;;18.30;99.90;;;;;;3059723;19;20011;-71
2022/08/03 05:05:15;;;;;;;9.93;4.10;;;18.40;99.90;;;;;;3058576;19;20088;-71
2022/08/03 05:06:19;;;;;;;9.63;4.13;;;18.40;99.90;;;;;;3058359;19;20023;-71
2022/08/03 05:07:20;;;;;;;9.13;3.83;;;18.20;99.90;;;;;;3058276;19;20011;-71
2022/08/03 05:08:27;;;;;;;9.43;4.35;;;18.60;99.90;;;;;;3058714;19;20014;-71
2022/08/03 05:09:28;;;;;;;12.27;4.00;;;18.40;99.90;;;;;;3058597;19;20481;-71
2022/08/03 05:10:32;;;;;;;7.80;3.53;;;18.50;99.90;;;;;;3059586;19;20487;-71
2022/08/03 05:11:33;;;;;;;10.85;4.07;;;18.40;99.90;;;;;;3058524;19;20464;-71
2022/08/03 05:12:37;;;;;;;9.85;3.75;;;18.40;99.90;;;;;;3058208;19;20018;-71
2022/08/03 05:13:39;;;;;;;9.23;4.07;;;18.50;99.90;;;;;;3058804;19;20356;-71
2022/08/03 05:14:43;;;;;;;7.38;3.78;;;18.60;99.90;;;;;;3059321;19;20501;-71
2022/08/03 05:15:44;;;;;;;10.93;3.70;;;18.50;99.90;;;;;;3058706;19;20121;-71
2022/08/03 05:16:48;;;;;;;8.30;3.78;;;18.50;99.90;;;;;;3059044;19;20014;-71
2022/08/03 05:17:49;;;;;;;10.75;3.78;;;18.60;99.90;;;;;;3060583;19;20014;-71
2022/08/03 05:18:53;;;;;;;7.80;3.70;;;18.60;99.90;;;;;;3059757;19;20018;-71
2022/08/03 05:19:55;;;;;;;11.23;4.03;;;18.40;99.90;;;;;;3059133;19;20006;-72
2022/08/03 05:20:59;;;;;;;13.50;4.22;;;18.60;99.90;;;;;;3060359;19;20499;-71
2022/08/03 05:22:00;;;;;;;7.63;3.70;;;18.70;99.90;;;;;;3061181;19;20015;-71
2022/08/03 05:23:05;;;;;;;7.78;4.03;;;18.60;99.90;;;;;;3061046;19;20039;-71
2022/08/03 05:24:09;;;;;;;9.10;3.55;;;18.60;99.90;;;;;;3059430;19;20013;-71
2022/08/03 05:25:13;;;;;;;7.85;3.58;;;18.60;99.90;;;;;;3058696;19;20028;-71
2022/08/03 05:26:15;;;;;;;8.65;3.53;;;18.60;99.90;;;;;;3058570;19;20010;-71
2022/08/03 05:27:20;;;;;;;12.15;3.83;;;18.70;99.90;;;;;;3059522;19;20011;-72
2022/08/03 05:28:21;;;;;;;10.30;3.30;;;18.70;99.90;;;;;;3060124;19;20010;-71
2022/08/03 05:29:25;;;;;;;11.55;3.72;;;19.00;99.90;;;;;;3060550;19;20018;-71
2022/08/03 05:30:26;;;;;;;11.13;3.65;;;18.80;99.90;;;;;;3059455;19;20032;-71
2022/08/03 05:31:30;;;;;;;9.68;3.80;;;18.80;99.90;;;;;;3060290;19;20479;-72
2022/08/03 05:32:32;;;;;;;10.70;3.63;;;18.70;99.90;;;;;;3060093;19;20021;-71
2022/08/03 05:33:36;;;;;;;6.72;3.45;;;18.80;99.90;;;;;;3058130;19;20010;-71
2022/08/03 05:34:37;;;;;;;9.45;3.40;;;18.80;99.90;;;;;;3058633;19;20010;-71
2022/08/03 05:35:41;;;;;;;;;;;19.00;99.90;;;;;;3059582;19;20043;-71
2022/08/03 05:36:42;;;;;;;9.15;3.15;;;18.90;99.90;;;;;;3058525;19;19914;-71
2022/08/03 05:37:46;;;;;;;11.63;2.97;;;18.70;99.90;;;;;;3058231;19;20015;-71
2022/08/03 05:38:48;;;;;;;8.13;3.30;;;18.80;99.90;;;;;;3058110;19;20015;-71
2022/08/03 05:39:54;;;;;;;9.55;3.03;;;18.80;99.90;;;;;;3058211;19;20376;-71
2022/08/03 05:40:56;;;;;;;11.30;3.60;;;18.90;99.90;;;;;;3058313;19;20010;-71
2022/08/03 05:42:00;;;;;;;9.73;3.35;;;18.90;99.90;;;;;;3059544;19;20019;-71
2022/08/03 05:43:02;;;;;;;9.77;3.40;;;18.80;99.90;;;;;;3058484;19;20028;-71
2022/08/03 05:44:06;;;;;;;11.38;3.22;;;18.90;99.90;;;;;;3058142;19;20018;-71
2022/08/03 05:45:13;;;;;;;7.25;2.92;;;18.80;99.90;;;;;;3058913;19;20100;-71